Time;durP1;ratioP1;P1;durP2;ratioP2;P2;SDS_P1;SDS_P2;PMS_P1;PMS_P2;Temp;Humidity;BMP_temperature;BMP_pressure;BME280_temperature;BME280_humidity;BME280_pressure;Samples;Min_cycle;Max_cycle;Signal;HPM_P1;HPM_P2
2022/08/12 00:44:43;;;;;;;;;;;21.30;70.50;;;;;;4940253;29;19926;-81
2022/08/12 00:47:12;;;;;;;;;;;21.40;70.10;;;;;;4923620;29;19978;-81
2022/08/12 00:49:52;;;;;;;;;;;21.40;69.50;;;;;;4918284;29;19927;-81
2022/08/12 00:52:19;;;;;;;;;;;21.50;69.10;;;;;;4937893;29;19926;-82
2022/08/12 00:54:47;;;;;;;;;;;21.50;68.80;;;;;;4921048;29;20349;-83
2022/08/12 00:57:16;;;;;;;;;;;21.50;69.00;;;;;;4918934;29;20323;-83
2022/08/12 00:59:44;;;;;;;;;;;21.50;69.30;;;;;;4922812;29;20028;-81
2022/08/12 01:02:14;;;;;;;;;;;21.50;69.30;;;;;;4948673;28;19927;-84
2022/08/12 01:13:00;;;;;;;;;;;21.60;68.90;;;;;;4944420;29;19926;-83
2022/08/12 01:15:46;;;;;;;;;;;21.60;68.00;;;;;;4936263;28;20362;-82
2022/08/12 01:18:13;;;;;;;;;;;21.70;66.90;;;;;;4923988;29;19927;-83
2022/08/12 01:20:50;;;;;;;;;;;21.70;66.20;;;;;;4918185;29;19927;-84
2022/08/12 01:23:36;;;;;;;;;;;21.80;65.60;;;;;;4928794;29;19970;-81
2022/08/12 01:26:05;;;;;;;;;;;21.80;65.20;;;;;;4920107;29;19978;-83
2022/08/12 01:28:33;;;;;;;;;;;21.90;65.10;;;;;;4922292;29;19960;-81
2022/08/12 01:31:03;;;;;;;;;;;21.90;64.50;;;;;;4938476;29;19990;-81
2022/08/12 01:33:36;;;;;;;;;;;22.00;64.30;;;;;;4941258;29;19949;-81
2022/08/12 01:36:04;;;;;;;;;;;22.00;64.10;;;;;;4919358;29;19926;-81
2022/08/12 01:38:35;;;;;;;;;;;22.00;63.80;;;;;;4917808;29;19931;-84
2022/08/12 01:41:03;;;;;;;;;;;22.10;63.60;;;;;;4915974;29;19963;-81
2022/08/12 01:43:31;;;;;;;;;;;22.10;63.40;;;;;;4914139;29;19974;-81
2022/08/12 01:46:28;;;;;;;;;;;22.20;63.10;;;;;;4924849;29;19966;-80
2022/08/12 01:49:06;;;;;;;;;;;22.20;62.80;;;;;;4912409;29;19986;-80
2022/08/12 01:51:41;;;;;;;;;;;22.20;62.80;;;;;;4938542;29;20442;-80
2022/08/12 01:54:29;;;;;;;;;;;22.20;62.50;;;;;;4936397;29;19927;-81
2022/08/12 01:57:19;;;;;;;;;;;22.20;62.50;;;;;;4915229;29;19931;-82
2022/08/12 02:11:58;;;;;;;;;;;22.40;61.30;;;;;;4938511;29;19982;-81
2022/08/12 02:14:39;;;;;;;;;;;22.50;61.30;;;;;;4936222;29;19931;-85
2022/08/12 02:17:21;;;;;;;;;;;22.50;61.40;;;;;;4927231;29;20296;-82
2022/08/12 02:20:11;;;;;;;;;;;22.50;61.40;;;;;;4934717;29;19966;-83
2022/08/12 02:22:43;;;;;;;;;;;22.50;61.20;;;;;;4919552;29;20348;-84
2022/08/12 02:25:12;;;;;;;;;;;22.50;60.70;;;;;;4920142;29;19986;-82
2022/08/12 02:27:40;;;;;;;;;;;22.60;60.70;;;;;;4936428;29;19986;-81
2022/08/12 02:30:09;;;;;;;;;;;22.60;60.60;;;;;;4935828;29;19930;-79
2022/08/12 02:32:37;;;;;;;;;;;22.70;60.30;;;;;;4936608;29;19982;-83
2022/08/12 02:35:09;;;;;;;;;;;22.70;60.20;;;;;;4925617;29;19931;-81
2022/08/12 02:37:38;;;;;;;;;;;22.70;59.90;;;;;;4942909;29;19998;-81
2022/08/12 02:40:08;;;;;;;;;;;22.70;59.90;;;;;;4943198;29;20414;-82
2022/08/12 02:42:42;;;;;;;;;;;22.70;59.60;;;;;;4919530;29;19931;-82
2022/08/12 02:45:10;;;;;;;;;;;22.70;59.70;;;;;;4943358;29;19978;-85
2022/08/12 02:47:39;;;;;;;;;;;22.70;59.70;;;;;;4923719;29;19935;-84
2022/08/12 02:50:28;;;;;;;;;;;22.70;59.40;;;;;;4916939;29;19928;-81
2022/08/12 02:52:55;;;;;;;;;;;22.80;59.30;;;;;;4913748;29;19931;-82
2022/08/12 02:55:26;;;;;;;;;;;22.80;59.30;;;;;;4923677;29;19931;-83
2022/08/12 02:57:59;;;;;;;;;;;22.80;59.50;;;;;;4919835;29;19927;-82
2022/08/12 03:00:32;;;;;;;;;;;22.70;59.80;;;;;;4920493;29;19977;-83
2022/08/12 03:03:03;;;;;;;;;;;22.70;59.50;;;;;;4911061;29;19927;-81
2022/08/12 03:05:31;;;;;;;;;;;22.70;59.50;;;;;;4921809;29;19927;-82
2022/08/12 03:08:11;;;;;;;;;;;22.70;59.70;;;;;;4920640;29;19931;-82
2022/08/12 03:11:02;;;;;;;;;;;22.70;59.60;;;;;;4909364;29;19979;-84
2022/08/12 03:13:32;;;;;;;;;;;22.70;59.70;;;;;;4917379;29;20025;-83
2022/08/12 03:15:59;;;;;;;;;;;22.70;59.70;;;;;;4919006;29;20018;-85
2022/08/12 03:18:30;;;;;;;;;;;22.70;59.60;;;;;;4918741;29;19927;-81
2022/08/12 03:20:58;;;;;;;;;;;22.70;59.50;;;;;;4911119;29;19934;-81
2022/08/12 03:23:25;;;;;;;;;;;22.70;59.20;;;;;;4905512;29;19997;-83
2022/08/12 03:26:00;;;;;;;;;;;22.80;58.90;;;;;;4916930;29;19967;-81
2022/08/12 03:31:14;;;;;;;;;;;22.80;58.60;;;;;;4914317;29;19931;-83
2022/08/12 03:33:44;;;;;;;;;;;22.80;58.40;;;;;;4920584;29;20380;-82
2022/08/12 03:36:33;;;;;;;;;;;22.90;58.50;;;;;;4896179;29;29876;-81
2022/08/12 03:41:52;;;;;;;;;;;22.90;57.80;;;;;;4915619;29;19941;-82
2022/08/12 04:01:07;;;;;;;;;;;22.60;60.00;;;;;;4916437;29;19928;-84
2022/08/12 04:03:52;;;;;;;;;;;22.50;60.30;;;;;;4916314;29;19979;-80
2022/08/12 04:06:23;;;;;;;;;;;22.40;60.10;;;;;;4898254;29;20379;-81
2022/08/12 04:09:03;;;;;;;;;;;22.40;60.40;;;;;;4900441;29;19934;-82
2022/08/12 04:14:27;;;;;;;;;;;22.30;60.70;;;;;;4914997;29;20391;-82
2022/08/12 04:16:55;;;;;;;;;;;22.20;60.50;;;;;;4893621;29;19969;-81
2022/08/12 04:19:23;;;;;;;;;;;22.20;60.50;;;;;;4891550;29;19939;-80
2022/08/12 04:21:51;;;;;;;;;;;22.10;60.50;;;;;;4925803;29;19934;-81
2022/08/12 04:24:35;;;;;;;;;;;22.10;60.60;;;;;;4944167;29;19937;-82
2022/08/12 04:27:07;;;;;;;;;;;22.10;60.80;;;;;;4919160;29;19926;-81
2022/08/12 04:29:36;;;;;;;;;;;22.00;61.10;;;;;;4914294;29;19927;-84
2022/08/12 04:32:25;;;;;;;;;;;22.00;61.10;;;;;;4917482;29;20017;-82
2022/08/12 04:34:52;;;;;;;;;;;22.00;61.20;;;;;;4938453;29;19978;-82
2022/08/12 04:37:19;;;;;;;;;;;21.90;61.20;;;;;;4920867;29;19982;-82
2022/08/12 04:39:47;;;;;;;;;;;21.90;61.50;;;;;;4920547;29;19967;-84
2022/08/12 04:42:14;;;;;;;;;;;21.80;62.80;;;;;;4929026;29;20014;-83
2022/08/12 04:44:42;;;;;;;;;;;21.70;64.20;;;;;;4936037;29;19987;-83
2022/08/12 04:47:13;;;;;;;;;;;21.60;64.70;;;;;;4921933;29;19927;-81
2022/08/12 04:49:40;;;;;;;;;;;21.40;65.20;;;;;;4936083;29;19978;-83
2022/08/12 04:52:07;;;;;;;;;;;21.30;66.20;;;;;;4917288;29;20384;-81
2022/08/12 04:54:34;;;;;;;;;;;21.20;66.50;;;;;;4939065;29;20343;-81
2022/08/12 04:57:01;;;;;;;;;;;21.10;67.00;;;;;;4919178;29;19966;-81
2022/08/12 04:59:31;;;;;;;;;;;21.10;67.90;;;;;;4920569;29;19938;-82
2022/08/12 05:02:18;;;;;;;;;;;21.00;68.40;;;;;;4937666;29;20022;-83
2022/08/12 05:04:54;;;;;;;;;;;21.00;68.90;;;;;;4913441;29;19959;-85
2022/08/12 05:07:22;;;;;;;;;;;21.00;68.70;;;;;;4912597;29;19927;-82
2022/08/12 05:09:49;;;;;;;;;;;21.00;68.20;;;;;;4938623;29;19933;-81
2022/08/12 05:12:36;;;;;;;;;;;21.10;68.10;;;;;;4920206;29;19957;-83
2022/08/12 05:15:04;;;;;;;;;;;21.10;67.90;;;;;;4940533;29;19938;-81
2022/08/12 05:17:51;;;;;;;;;;;21.20;67.90;;;;;;4938830;29;20388;-81
2022/08/12 05:20:21;;;;;;;;;;;21.20;68.30;;;;;;4922084;29;19978;-81
2022/08/12 05:22:48;;;;;;;;;;;21.20;68.70;;;;;;4937884;29;19980;-82
2022/08/12 05:25:19;;;;;;;;;;;21.30;68.70;;;;;;4917190;29;20300;-83
2022/08/12 05:27:47;;;;;;;;;;;21.30;69.10;;;;;;4918636;29;19986;-81
2022/08/12 05:30:24;;;;;;;;;;;21.40;69.20;;;;;;4937085;29;19934;-85
2022/08/12 05:32:51;;;;;;;;;;;21.50;69.10;;;;;;4924119;29;19982;-81
2022/08/12 05:35:19;;;;;;;;;;;21.50;69.70;;;;;;4944138;29;19927;-83
2022/08/12 05:38:54;;;;;;;;;;;21.50;70.40;;;;;;4936862;29;20370;-82
2022/08/12 05:40:35;;;;;;;;;;;21.50;71.30;;;;;;4933472;29;20458;-83
2022/08/12 05:43:02;;;;;;;;;;;21.50;71.70;;;;;;4926682;29;19937;-81
2022/08/12 05:45:29;;;;;;;;;;;21.50;71.80;;;;;;4933555;29;19926;-82
2022/08/12 05:47:56;;;;;;;;;;;21.50;71.30;;;;;;4923307;29;20006;-81
2022/08/12 05:50:23;;;;;;;;;;;21.60;71.10;;;;;;4936086;29;19982;-83
2022/08/12 05:52:50;;;;;;;;;;;21.60;70.90;;;;;;4933998;29;19927;-82
2022/08/12 05:55:19;;;;;;;;;;;21.60;70.80;;;;;;4943249;29;20288;-83
2022/08/12 05:57:51;;;;;;;;;;;21.70;70.50;;;;;;4917287;29;19935;-80
2022/08/12 06:00:20;;;;;;;;;;;21.80;70.30;;;;;;4940792;29;19927;-83
2022/08/12 06:02:47;;;;;;;;;;;21.90;70.00;;;;;;4927950;29;19931;-82
2022/08/12 06:05:14;;;;;;;;;;;21.90;70.20;;;;;;4941088;29;19965;-83
2022/08/12 06:07:45;;;;;;;;;;;21.90;70.00;;;;;;4922917;29;19927;-84
2022/08/12 06:10:29;;;;;;;;;;;21.90;69.60;;;;;;4925458;29;19937;-80
2022/08/12 06:12:59;;;;;;;;;;;22.00;69.70;;;;;;4923917;29;19911;-82
2022/08/12 06:15:26;;;;;;;;;;;22.00;69.40;;;;;;4921936;29;19978;-81
2022/08/12 06:17:53;;;;;;;;;;;22.10;68.60;;;;;;4940409;29;19911;-84
2022/08/12 06:20:20;;;;;;;;;;;22.20;67.80;;;;;;4937864;29;19927;-83
2022/08/12 06:22:55;;;;;;;;;;;22.20;67.00;;;;;;4907965;29;19927;-83
2022/08/12 06:25:22;;;;;;;;;;;22.30;66.00;;;;;;4918127;29;19951;-83
2022/08/12 06:27:49;;;;;;;;;;;22.40;64.60;;;;;;4907078;29;19927;-82
2022/08/12 06:30:35;;;;;;;;;;;22.40;63.40;;;;;;4936325;29;20017;-83
2022/08/12 06:33:07;;;;;;;;;;;22.50;62.50;;;;;;4920058;29;20006;-84
2022/08/12 06:35:49;;;;;;;;;;;22.60;62.30;;;;;;4944457;29;19926;-82
2022/08/12 06:38:21;;;;;;;;;;;22.70;61.60;;;;;;4928037;29;19930;-82
2022/08/12 06:43:36;;;;;;;;;;;22.90;61.30;;;;;;4935192;29;19974;-84
2022/08/12 06:46:25;;;;;;;;;;;23.00;60.60;;;;;;4923640;29;20009;-85
2022/08/12 06:48:56;;;;;;;;;;;23.00;59.60;;;;;;4924841;28;20391;-85
2022/08/12 06:51:27;;;;;;;;;;;23.10;59.30;;;;;;4925634;29;20383;-84
2022/08/12 06:53:55;;;;;;;;;;;23.10;59.50;;;;;;4927049;29;20017;-81
2022/08/12 06:56:22;;;;;;;;;;;23.10;59.90;;;;;;4938102;29;20418;-83
2022/08/12 06:59:10;;;;;;;;;;;23.20;60.80;;;;;;4937890;29;20017;-84
2022/08/12 07:01:37;;;;;;;;;;;23.30;60.00;;;;;;4938639;29;19935;-84
2022/08/12 07:04:04;;;;;;;;;;;23.40;60.40;;;;;;4937458;29;19931;-84
2022/08/12 07:06:50;;;;;;;;;;;23.60;59.50;;;;;;4929931;29;20021;-84
2022/08/12 07:09:17;;;;;;;;;;;23.60;59.00;;;;;;4919509;29;19958;-85
2022/08/12 07:12:04;;;;;;;;;;;23.70;57.60;;;;;;4915635;29;20017;-84
2022/08/12 07:14:31;;;;;;;;;;;23.80;56.90;;;;;;4916582;29;19930;-81
2022/08/12 07:17:02;;;;;;;;;;;23.80;56.40;;;;;;4919724;29;19978;-83
2022/08/12 07:19:29;;;;;;;;;;;23.90;56.10;;;;;;4918774;29;20367;-82
2022/08/12 07:22:12;;;;;;;;;;;23.90;56.20;;;;;;4934525;29;20441;-86
2022/08/12 07:24:39;;;;;;;;;;;24.00;55.70;;;;;;4908260;29;20327;-81
2022/08/12 07:27:05;;;;;;;;;;;24.10;55.20;;;;;;4918011;29;19926;-84
2022/08/12 07:29:33;;;;;;;;;;;24.20;55.90;;;;;;4916039;29;19978;-85
2022/08/12 07:32:23;;;;;;;;;;;24.20;55.40;;;;;;4919609;29;20355;-84
2022/08/12 07:34:55;;;;;;;;;;;24.30;54.50;;;;;;4919624;29;19970;-84
2022/08/12 07:37:22;;;;;;;;;;;24.50;54.20;;;;;;4939198;28;19938;-84
2022/08/12 07:39:49;;;;;;;;;;;24.60;54.10;;;;;;4935912;29;20624;-81
2022/08/12 07:42:26;;;;;;;;;;;24.80;53.90;;;;;;4912312;29;19931;-83
2022/08/12 07:44:54;;;;;;;;;;;24.90;53.60;;;;;;4926477;29;19934;-84
2022/08/12 07:47:21;;;;;;;;;;;25.00;52.30;;;;;;4914360;29;19950;-84
2022/08/12 07:49:49;;;;;;;;;;;25.10;52.60;;;;;;4915709;29;19927;-83
2022/08/12 07:52:33;;;;;;;;;;;25.20;52.90;;;;;;4934951;29;19938;-82
2022/08/12 07:55:00;;;;;;;;;;;25.40;52.80;;;;;;4919838;29;19982;-81
2022/08/12 07:57:27;;;;;;;;;;;25.60;50.80;;;;;;4923292;29;20002;-84
2022/08/12 08:00:03;;;;;;;;;;;25.60;49.60;;;;;;4913961;29;19935;-84
2022/08/12 08:02:35;;;;;;;;;;;25.70;49.50;;;;;;4914004;29;19934;-81
2022/08/12 08:05:03;;;;;;;;;;;25.80;48.60;;;;;;4928520;29;19931;-81
2022/08/12 08:07:30;;;;;;;;;;;25.80;48.70;;;;;;4918398;29;19934;-84
2022/08/12 08:09:58;;;;;;;;;;;26.00;49.10;;;;;;4940556;29;19931;-84
2022/08/12 08:15:13;;;;;;;;;;;26.20;45.20;;;;;;4936829;29;19982;-84
2022/08/12 08:17:51;;;;;;;;;;;26.40;44.30;;;;;;4920534;29;19963;-84
2022/08/12 08:20:27;;;;;;;;;;;26.50;44.60;;;;;;4914230;29;20399;-81
2022/08/12 08:22:55;;;;;;;;;;;26.70;44.30;;;;;;4910983;29;19962;-84
2022/08/12 08:25:27;;;;;;;;;;;26.90;43.60;;;;;;4919891;29;19994;-84
2022/08/12 08:28:10;;;;;;;;;;;27.00;44.30;;;;;;4908635;29;20391;-83
2022/08/12 08:30:39;;;;;;;;;;;27.10;43.60;;;;;;4911921;29;19931;-85
2022/08/12 08:33:08;;;;;;;;;;;27.20;43.50;;;;;;4903248;29;19937;-84
2022/08/12 08:35:54;;;;;;;;;;;27.30;43.00;;;;;;4894730;29;19927;-83
2022/08/12 08:38:21;;;;;;;;;;;27.50;43.20;;;;;;4902790;29;19927;-81
2022/08/12 08:44:09;;;;;;;;;;;27.80;43.50;;;;;;4919102;29;20368;-85
2022/08/12 08:46:38;;;;;;;;;;;27.90;41.50;;;;;;4900215;29;19982;-84
2022/08/12 08:49:05;;;;;;;;;;;28.00;41.30;;;;;;4901980;29;19927;-83
2022/08/12 08:51:32;;;;;;;;;;;28.00;40.10;;;;;;4909057;29;19927;-84
2022/08/12 08:53:59;;;;;;;;;;;28.10;40.00;;;;;;4918628;29;19963;-82
2022/08/12 08:56:28;;;;;;;;;;;28.00;40.60;;;;;;4922218;29;19927;-86
2022/08/12 08:58:56;;;;;;;;;;;28.10;41.40;;;;;;4920692;29;19979;-85
2022/08/12 09:01:23;;;;;;;;;;;28.20;41.10;;;;;;4906175;29;19981;-84
2022/08/12 09:03:50;;;;;;;;;;;28.40;40.60;;;;;;4921264;29;19934;-84
2022/08/12 09:06:38;;;;;;;;;;;28.50;40.30;;;;;;4919917;29;19927;-85
2022/08/12 09:09:20;;;;;;;;;;;28.60;40.40;;;;;;4912074;29;19934;-85
2022/08/12 09:14:53;;;;;;;;;;;28.60;39.10;;;;;;4918424;29;19927;-83
2022/08/12 09:17:21;;;;;;;;;;;28.40;40.00;;;;;;4917287;29;19994;-83
2022/08/12 09:19:48;;;;;;;;;;;28.40;40.70;;;;;;4906396;29;19942;-81
2022/08/12 09:22:34;;;;;;;;;;;28.40;39.20;;;;;;4916452;29;19935;-83
2022/08/12 09:25:05;;;;;;;;;;;28.30;38.70;;;;;;4919137;29;20443;-83
2022/08/12 09:27:35;;;;;;;;;;;28.30;39.20;;;;;;4930665;29;19985;-83
2022/08/12 09:30:23;;;;;;;;;;;28.30;38.90;;;;;;4936815;29;20029;-83
2022/08/12 09:33:08;;;;;;;;;;;28.40;39.70;;;;;;4933053;29;19938;-83
2022/08/12 09:35:56;;;;;;;;;;;28.40;39.60;;;;;;4915062;29;19934;-82
2022/08/12 09:38:32;;;;;;;;;;;28.50;38.90;;;;;;4917298;29;19935;-84
2022/08/12 09:41:02;;;;;;;;;;;28.50;38.40;;;;;;4929809;29;19934;-85
2022/08/12 09:46:54;;;;;;;;;;;28.80;38.70;;;;;;4937293;29;20462;-84
2022/08/12 09:49:25;;;;;;;;;;;28.90;38.10;;;;;;4917377;29;19934;-85
2022/08/12 09:51:53;;;;;;;;;;;29.00;38.10;;;;;;4920628;29;19937;-85
2022/08/12 09:54:24;;;;;;;;;;;29.10;35.90;;;;;;4918379;29;19979;-83
2022/08/12 09:57:06;;;;;;;;;;;29.10;36.70;;;;;;4922026;29;19935;-86
2022/08/12 09:59:55;;;;;;;;;;;29.20;36.90;;;;;;4922385;29;20005;-85
2022/08/12 10:03:04;;;;;;;;;;;29.40;37.10;;;;;;4923232;29;20399;-83
2022/08/12 10:05:35;;;;;;;;;;;29.50;36.80;;;;;;4919859;29;19937;-83
2022/08/12 10:08:23;;;;;;;;;;;29.70;36.40;;;;;;4931963;29;20467;-84
2022/08/12 10:13:47;;;;;;;;;;;30.00;35.80;;;;;;4936212;29;20427;-84
2022/08/12 10:16:16;;;;;;;;;;;30.10;35.50;;;;;;4937852;29;19926;-84
2022/08/12 10:18:49;;;;;;;;;;;30.10;35.80;;;;;;4920003;29;19943;-83
2022/08/12 10:21:19;;;;;;;;;;;30.20;36.50;;;;;;4911690;29;19959;-85
2022/08/12 10:23:49;;;;;;;;;;;30.30;37.50;;;;;;4902551;29;19934;-84
2022/08/12 10:32:19;;;;;;;;;;;30.50;35.80;;;;;;4919348;29;19927;-84
2022/08/12 10:35:07;;;;;;;;;;;30.60;34.40;;;;;;4919528;29;19933;-85
2022/08/12 10:37:34;;;;;;;;;;;30.60;34.50;;;;;;4901383;29;19927;-85
2022/08/12 10:40:21;;;;;;;;;;;30.60;33.80;;;;;;4894203;29;20006;-80
2022/08/12 10:45:42;;;;;;;;;;;30.40;34.20;;;;;;4917435;29;20300;-82
2022/08/12 10:48:11;;;;;;;;;;;30.50;35.00;;;;;;4916588;29;19933;-85
2022/08/12 10:50:53;;;;;;;;;;;30.60;34.80;;;;;;4899687;29;19927;-85
2022/08/12 10:53:28;;;;;;;;;;;30.60;35.00;;;;;;4888554;29;19992;-84
2022/08/12 10:56:15;;;;;;;;;;;30.50;35.40;;;;;;4899449;29;20387;-81
2022/08/12 10:58:43;;;;;;;;;;;30.50;35.20;;;;;;4915799;29;19975;-80
2022/08/12 11:01:14;;;;;;;;;;;30.30;35.40;;;;;;4898348;29;20442;-80
2022/08/12 11:04:01;;;;;;;;;;;30.20;35.70;;;;;;4897832;29;20001;-85
2022/08/12 11:06:49;;;;;;;;;;;30.00;36.10;;;;;;4896872;29;19953;-79
2022/08/12 11:09:37;;;;;;;;;;;29.70;36.30;;;;;;4920615;29;20314;-77
2022/08/12 11:12:23;;;;;;;;;;;29.50;36.70;;;;;;4897565;29;19932;-80
2022/08/12 11:15:11;;;;;;;;;;;29.50;38.10;;;;;;4916286;29;19977;-85
2022/08/12 11:17:49;;;;;;;;;;;29.30;37.70;;;;;;4889062;29;19974;-87
2022/08/12 11:20:22;;;;;;;;;;;29.40;38.50;;;;;;4897686;29;19931;-86
2022/08/12 11:22:57;;;;;;;;;;;29.30;39.00;;;;;;4896604;29;20039;-78
2022/08/12 11:25:25;;;;;;;;;;;29.30;38.90;;;;;;4893984;29;19983;-77
2022/08/12 11:28:13;;;;;;;;;;;29.40;38.70;;;;;;4900340;29;20075;-86
2022/08/12 11:30:40;;;;;;;;;;;29.60;38.70;;;;;;4882180;29;19950;-80
2022/08/12 11:33:07;;;;;;;;;;;29.70;37.50;;;;;;4909796;29;19993;-79
2022/08/12 11:35:40;;;;;;;;;;;29.70;37.40;;;;;;4905154;29;20302;-86
2022/08/12 11:38:09;;;;;;;;;;;29.80;35.80;;;;;;4915763;29;19958;-81
2022/08/12 11:40:36;;;;;;;;;;;29.90;36.80;;;;;;4919751;29;19955;-88
2022/08/12 11:43:08;;;;;;;;;;;30.20;36.70;;;;;;4916267;29;19931;-78
2022/08/12 11:45:45;;;;;;;;;;;30.60;35.60;;;;;;4919030;29;19927;-78
2022/08/12 11:48:14;;;;;;;;;;;30.90;34.60;;;;;;4905341;29;20058;-83
2022/08/12 11:50:44;;;;;;;;;;;31.00;35.00;;;;;;4895783;29;20549;-81
2022/08/12 11:53:11;;;;;;;;;;;31.10;35.10;;;;;;4893760;29;19931;-80
2022/08/12 11:55:57;;;;;;;;;;;31.00;35.00;;;;;;4905370;29;20042;-86
2022/08/12 11:58:27;;;;;;;;;;;31.00;34.40;;;;;;4895689;29;19951;-80
2022/08/12 12:01:13;;;;;;;;;;;30.90;35.40;;;;;;4913171;29;20459;-78
2022/08/12 12:04:00;;;;;;;;;;;31.10;35.80;;;;;;4895926;29;20010;-81
2022/08/12 12:06:27;;;;;;;;;;;31.50;35.00;;;;;;4901699;29;19927;-81
2022/08/12 12:08:54;;;;;;;;;;;31.80;34.90;;;;;;4886095;29;19931;-81
2022/08/12 12:11:26;;;;;;;;;;;31.90;33.60;;;;;;4894309;29;19959;-81
2022/08/12 12:14:14;;;;;;;;;;;31.90;33.80;;;;;;4909549;29;19927;-80
2022/08/12 12:16:43;;;;;;;;;;;32.00;34.10;;;;;;4915258;29;19987;-78
2022/08/12 12:19:16;;;;;;;;;;;32.10;33.30;;;;;;4914529;29;19927;-80
2022/08/12 12:21:45;;;;;;;;;;;32.10;34.00;;;;;;4925342;29;20310;-78
2022/08/12 12:24:18;;;;;;;;;;;32.10;33.60;;;;;;4933504;29;19927;-80
2022/08/12 12:26:49;;;;;;;;;;;32.20;33.40;;;;;;4909565;29;19931;-80
2022/08/12 12:29:27;;;;;;;;;;;32.40;34.50;;;;;;4923350;29;19970;-77
2022/08/12 12:32:14;;;;;;;;;;;32.50;33.70;;;;;;4920979;29;20050;-79
2022/08/12 12:34:41;;;;;;;;;;;32.50;32.70;;;;;;4934442;29;19949;-88
2022/08/12 12:37:28;;;;;;;;;;;32.40;33.50;;;;;;4917006;29;19930;-79
2022/08/12 12:40:14;;;;;;;;;;;32.20;34.20;;;;;;4931005;29;19934;-87
2022/08/12 12:42:42;;;;;;;;;;;32.10;34.00;;;;;;4917296;29;19927;-87
2022/08/12 12:45:23;;;;;;;;;;;32.10;33.90;;;;;;4920337;29;19931;-80
2022/08/12 12:47:54;;;;;;;;;;;32.20;35.10;;;;;;4917432;29;19973;-79
2022/08/12 12:50:23;;;;;;;;;;;32.40;34.20;;;;;;4916066;29;19927;-80
2022/08/12 12:53:02;;;;;;;;;;;32.30;33.80;;;;;;4929982;29;19933;-80
2022/08/12 12:55:30;;;;;;;;;;;32.20;33.80;;;;;;4910295;29;20455;-78
2022/08/12 12:58:03;;;;;;;;;;;32.20;34.40;;;;;;4934607;29;20310;-80
2022/08/12 13:00:35;;;;;;;;;;;32.10;35.40;;;;;;4917466;29;19935;-80
2022/08/12 13:03:02;;;;;;;;;;;32.20;35.00;;;;;;4917895;29;19930;-79
2022/08/12 13:05:31;;;;;;;;;;;32.30;34.40;;;;;;4910762;29;19937;-80
2022/08/12 13:08:23;;;;;;;;;;;32.50;34.90;;;;;;4925789;29;19937;-77
2022/08/12 13:11:02;;;;;;;;;;;32.80;34.30;;;;;;4924799;29;20396;-89
2022/08/12 13:13:31;;;;;;;;;;;33.00;34.00;;;;;;4916077;29;19939;-80
2022/08/12 13:16:22;;;;;;;;;;;33.10;33.70;;;;;;4926190;29;20025;-79
2022/08/12 13:18:49;;;;;;;;;;;33.00;33.00;;;;;;4919345;29;19931;-80
2022/08/12 13:21:17;;;;;;;;;;;32.80;34.20;;;;;;4921878;29;20272;-79
2022/08/12 13:24:02;;;;;;;;;;;32.80;33.70;;;;;;4931450;29;20022;-80
2022/08/12 13:26:38;;;;;;;;;;;33.00;33.60;;;;;;4922107;29;19927;-78
2022/08/12 13:29:05;;;;;;;;;;;33.30;34.50;;;;;;4939577;29;19926;-80
2022/08/12 13:31:38;;;;;;;;;;;33.30;33.10;;;;;;4938318;29;20021;-86
2022/08/12 13:34:25;;;;;;;;;;;33.20;33.50;;;;;;4921236;29;20352;-78
2022/08/12 13:37:04;;;;;;;;;;;32.80;33.00;;;;;;4935374;29;20021;-77
2022/08/12 13:39:35;;;;;;;;;;;32.40;33.60;;;;;;4938970;29;19964;-80
2022/08/12 13:42:08;;;;;;;;;;;32.10;34.30;;;;;;4936443;29;19975;-80
2022/08/12 13:44:40;;;;;;;;;;;32.10;35.20;;;;;;4935681;29;19930;-86
2022/08/12 13:47:07;;;;;;;;;;;32.20;35.90;;;;;;4923877;29;19931;-85
2022/08/12 13:49:45;;;;;;;;;;;32.40;35.10;;;;;;4919730;29;19954;-86
2022/08/12 13:52:22;;;;;;;;;;;32.60;34.80;;;;;;4933737;29;19928;-79
2022/08/12 13:54:49;;;;;;;;;;;32.60;34.10;;;;;;4922464;28;19927;-85
2022/08/12 13:57:25;;;;;;;;;;;32.40;34.60;;;;;;4942810;29;19927;-78
2022/08/12 13:59:53;;;;;;;;;;;32.20;34.40;;;;;;4920529;29;19927;-87
2022/08/12 14:02:27;;;;;;;;;;;31.80;34.90;;;;;;4918858;29;20382;-79
2022/08/12 14:04:53;;;;;;;;;;;31.60;35.90;;;;;;4940435;29;19934;-79
2022/08/12 14:07:22;;;;;;;;;;;31.50;35.50;;;;;;4923376;29;20021;-77
2022/08/12 14:12:43;;;;;;;;;;;31.00;36.50;;;;;;4945904;28;20298;-80
2022/08/12 14:15:21;;;;;;;;;;;30.90;37.00;;;;;;4943499;29;19977;-80
2022/08/12 14:18:08;;;;;;;;;;;31.00;36.80;;;;;;4929666;29;19977;-87
2022/08/12 14:20:39;;;;;;;;;;;31.10;37.00;;;;;;4925763;29;20022;-78
2022/08/12 14:23:09;;;;;;;;;;;31.10;36.70;;;;;;4928372;29;20360;-80
2022/08/12 14:25:59;;;;;;;;;;;31.10;35.70;;;;;;4921197;29;20299;-80
2022/08/12 14:28:27;;;;;;;;;;;31.00;36.70;;;;;;4919382;29;20579;-86
2022/08/12 14:30:57;;;;;;;;;;;30.90;37.20;;;;;;4913084;29;19933;-77
2022/08/12 14:33:28;;;;;;;;;;;31.00;37.60;;;;;;4932911;29;19933;-85
2022/08/12 14:36:10;;;;;;;;;;;31.00;36.70;;;;;;4931190;29;19926;-79
2022/08/12 14:38:44;;;;;;;;;;;31.20;37.20;;;;;;4916519;29;19971;-78
2022/08/12 14:41:12;;;;;;;;;;;31.30;36.40;;;;;;4932895;29;19930;-80
2022/08/12 14:43:41;;;;;;;;;;;31.40;36.00;;;;;;4922513;29;19942;-81
2022/08/12 14:46:28;;;;;;;;;;;31.70;38.10;;;;;;4919592;29;19966;-80
2022/08/12 14:48:55;;;;;;;;;;;32.00;35.70;;;;;;4918765;29;20359;-80
2022/08/12 14:51:23;;;;;;;;;;;32.20;35.10;;;;;;4934860;29;19974;-87
2022/08/12 14:54:09;;;;;;;;;;;32.50;34.40;;;;;;4925668;29;20009;-80
2022/08/12 14:56:57;;;;;;;;;;;32.50;34.60;;;;;;4934520;29;20017;-80
2022/08/12 15:02:29;;;;;;;;;;;32.10;34.40;;;;;;4930794;29;19991;-78
2022/08/12 15:04:59;;;;;;;;;;;31.70;35.50;;;;;;4935611;29;19927;-86
2022/08/12 15:07:29;;;;;;;;;;;31.60;35.90;;;;;;4916045;29;20278;-80
2022/08/12 15:10:19;;;;;;;;;;;31.60;37.20;;;;;;4924724;29;19934;-86
2022/08/12 15:13:04;;;;;;;;;;;31.60;35.40;;;;;;4934923;29;19934;-77
2022/08/12 15:15:37;;;;;;;;;;;31.50;36.40;;;;;;4908138;29;19931;-85
2022/08/12 15:18:12;;;;;;;;;;;31.40;35.80;;;;;;4937234;29;19927;-77
2022/08/12 15:20:40;;;;;;;;;;;31.20;36.90;;;;;;4937694;29;19926;-77
2022/08/12 15:23:09;;;;;;;;;;;31.00;36.60;;;;;;4919890;29;19967;-79
2022/08/12 15:25:47;;;;;;;;;;;30.80;37.20;;;;;;4920090;29;19978;-79
2022/08/12 15:28:27;;;;;;;;;;;30.70;37.70;;;;;;4919025;29;19927;-77
2022/08/12 15:30:56;;;;;;;;;;;30.40;37.30;;;;;;4941150;29;20013;-79
2022/08/12 15:33:25;;;;;;;;;;;30.20;38.10;;;;;;4907841;29;20394;-80
2022/08/12 15:36:11;;;;;;;;;;;30.10;38.50;;;;;;4931141;29;19933;-86
2022/08/12 15:38:38;;;;;;;;;;;30.10;38.90;;;;;;4916522;29;19931;-79
2022/08/12 15:41:05;;;;;;;;;;;30.10;39.30;;;;;;4930874;29;20414;-80
2022/08/12 15:43:35;;;;;;;;;;;30.10;38.50;;;;;;4919826;29;20395;-81
2022/08/12 15:46:24;;;;;;;;;;;30.00;38.90;;;;;;4926218;29;19966;-79
2022/08/12 15:48:51;;;;;;;;;;;30.10;39.50;;;;;;4914928;29;20314;-79
2022/08/12 15:51:32;;;;;;;;;;;30.00;39.30;;;;;;4909067;29;20022;-81
2022/08/12 15:54:19;;;;;;;;;;;30.10;39.40;;;;;;4914919;29;19934;-81
2022/08/12 15:57:04;;;;;;;;;;;30.00;39.30;;;;;;4917188;29;19927;-81
2022/08/12 15:59:31;;;;;;;;;;;30.00;39.80;;;;;;4933144;29;20202;-84
2022/08/12 16:02:18;;;;;;;;;;;30.00;39.00;;;;;;4910609;29;19937;-84
2022/08/12 16:04:49;;;;;;;;;;;30.00;39.70;;;;;;4922196;29;19930;-83
2022/08/12 16:07:23;;;;;;;;;;;30.00;39.60;;;;;;4920629;29;19995;-79
2022/08/12 16:09:59;;;;;;;;;;;30.10;40.60;;;;;;4937102;29;19990;-79
2022/08/12 16:12:38;;;;;;;;;;;30.20;39.20;;;;;;4936866;29;19962;-81
2022/08/12 16:15:05;;;;;;;;;;;30.10;38.50;;;;;;4918726;29;20017;-80
2022/08/12 16:17:35;;;;;;;;;;;30.00;38.70;;;;;;4931788;29;19962;-76
2022/08/12 16:20:23;;;;;;;;;;;29.90;39.30;;;;;;4931008;29;19973;-81
2022/08/12 16:23:10;;;;;;;;;;;29.90;39.50;;;;;;4931005;29;19927;-82
2022/08/12 16:25:59;;;;;;;;;;;29.90;39.40;;;;;;4916698;29;19970;-77
2022/08/12 16:28:32;;;;;;;;;;;29.80;39.60;;;;;;4920311;29;19942;-82
2022/08/12 16:30:59;;;;;;;;;;;29.70;39.70;;;;;;4933847;29;20384;-82
2022/08/12 16:33:31;;;;;;;;;;;29.70;40.00;;;;;;4906250;29;19928;-84
2022/08/12 16:36:03;;;;;;;;;;;29.70;39.60;;;;;;4934069;29;20525;-76
2022/08/12 16:38:30;;;;;;;;;;;29.70;40.10;;;;;;4916698;29;19935;-82
2022/08/12 16:40:57;;;;;;;;;;;29.80;40.30;;;;;;4934087;29;20042;-76
2022/08/12 16:43:26;;;;;;;;;;;29.70;39.70;;;;;;4918544;29;19976;-76
2022/08/12 16:45:56;;;;;;;;;;;29.70;39.60;;;;;;4910817;29;19931;-76
2022/08/12 16:48:43;;;;;;;;;;;29.70;39.60;;;;;;4919143;29;19965;-82
2022/08/12 16:51:11;;;;;;;;;;;29.70;40.00;;;;;;4914016;29;19931;-83
2022/08/12 16:53:40;;;;;;;;;;;29.70;40.00;;;;;;4920561;29;19935;-80
2022/08/12 16:56:11;;;;;;;;;;;29.70;40.00;;;;;;4921642;29;19982;-82